sensor_id;sensor_type;location;lat;lon;timestamp;temperature;humidity
19258;DHT22;9763;48.780;9.212;2024-03-23T00:52:50;13.80;51.30
19258;DHT22;9763;48.780;9.212;2024-03-23T00:56:13;13.80;51.40
19258;DHT22;9763;48.780;9.212;2024-03-23T00:59:35;13.70;51.40
19258;DHT22;9763;48.780;9.212;2024-03-23T01:02:57;13.70;51.40
19258;DHT22;9763;48.780;9.212;2024-03-23T01:06:19;13.70;51.50
19258;DHT22;9763;48.780;9.212;2024-03-23T01:09:43;13.60;51.50
19258;DHT22;9763;48.780;9.212;2024-03-23T01:13:05;13.60;51.60
19258;DHT22;9763;48.780;9.212;2024-03-23T01:16:28;13.60;51.80
19258;DHT22;9763;48.780;9.212;2024-03-23T01:19:50;13.60;51.90
19258;DHT22;9763;48.780;9.212;2024-03-23T01:23:12;13.60;52.10
19258;DHT22;9763;48.780;9.212;2024-03-23T01:26:37;13.70;52.40
19258;DHT22;9763;48.780;9.212;2024-03-23T01:29:58;13.80;52.50
19258;DHT22;9763;48.780;9.212;2024-03-23T01:33:21;13.80;53.00
19258;DHT22;9763;48.780;9.212;2024-03-23T01:36:44;13.90;52.60
19258;DHT22;9763;48.780;9.212;2024-03-23T01:40:08;14.00;52.70
19258;DHT22;9763;48.780;9.212;2024-03-23T01:43:33;14.10;52.90
19258;DHT22;9763;48.780;9.212;2024-03-23T01:46:55;14.20;52.90
19258;DHT22;9763;48.780;9.212;2024-03-23T01:50:18;14.40;53.00
19258;DHT22;9763;48.780;9.212;2024-03-23T01:53:41;14.50;52.90
19258;DHT22;9763;48.780;9.212;2024-03-23T01:57:03;14.60;52.90
19258;DHT22;9763;48.780;9.212;2024-03-23T02:00:28;14.70;52.90
19258;DHT22;9763;48.780;9.212;2024-03-23T02:03:50;14.80;53.60
19258;DHT22;9763;48.780;9.212;2024-03-23T02:07:13;15.00;53.00
19258;DHT22;9763;48.780;9.212;2024-03-23T02:10:35;15.00;52.90
19258;DHT22;9763;48.780;9.212;2024-03-23T02:13:57;15.10;52.90
19258;DHT22;9763;48.780;9.212;2024-03-23T02:17:21;15.10;52.70
19258;DHT22;9763;48.780;9.212;2024-03-23T02:20:44;15.20;52.70
19258;DHT22;9763;48.780;9.212;2024-03-23T02:24:08;15.20;52.70
19258;DHT22;9763;48.780;9.212;2024-03-23T02:27:29;15.20;52.60
19258;DHT22;9763;48.780;9.212;2024-03-23T02:30:52;15.80;53.00
19258;DHT22;9763;48.780;9.212;2024-03-23T02:34:14;15.20;52.50
19258;DHT22;9763;48.780;9.212;2024-03-23T02:37:36;15.20;52.50
19258;DHT22;9763;48.780;9.212;2024-03-23T02:41:03;15.20;52.50
19258;DHT22;9763;48.780;9.212;2024-03-23T02:44:25;15.20;52.60
19258;DHT22;9763;48.780;9.212;2024-03-23T02:47:47;15.20;52.50
19258;DHT22;9763;48.780;9.212;2024-03-23T02:51:12;15.20;52.60
19258;DHT22;9763;48.780;9.212;2024-03-23T02:54:34;15.20;52.70
19258;DHT22;9763;48.780;9.212;2024-03-23T02:57:58;15.20;52.70
19258;DHT22;9763;48.780;9.212;2024-03-23T03:01:22;15.10;52.60
19258;DHT22;9763;48.780;9.212;2024-03-23T03:04:45;15.20;52.80
19258;DHT22;9763;48.780;9.212;2024-03-23T03:08:08;15.10;52.80
19258;DHT22;9763;48.780;9.212;2024-03-23T03:11:30;15.20;52.90
19258;DHT22;9763;48.780;9.212;2024-03-23T03:14:54;15.10;52.80
19258;DHT22;9763;48.780;9.212;2024-03-23T03:18:16;15.20;53.00
19258;DHT22;9763;48.780;9.212;2024-03-23T03:21:39;15.20;52.90
19258;DHT22;9763;48.780;9.212;2024-03-23T03:25:01;15.20;52.90
19258;DHT22;9763;48.780;9.212;2024-03-23T03:28:24;15.10;53.00
19258;DHT22;9763;48.780;9.212;2024-03-23T03:31:48;15.20;52.90
19258;DHT22;9763;48.780;9.212;2024-03-23T03:35:11;15.10;52.90
19258;DHT22;9763;48.780;9.212;2024-03-23T03:38:33;15.10;53.00
19258;DHT22;9763;48.780;9.212;2024-03-23T03:41:56;15.10;53.20
19258;DHT22;9763;48.780;9.212;2024-03-23T03:45:18;15.10;53.20
19258;DHT22;9763;48.780;9.212;2024-03-23T03:48:42;15.20;53.20
19258;DHT22;9763;48.780;9.212;2024-03-23T03:52:06;15.10;53.10
19258;DHT22;9763;48.780;9.212;2024-03-23T03:55:29;15.10;53.10
19258;DHT22;9763;48.780;9.212;2024-03-23T03:58:51;15.10;53.10
19258;DHT22;9763;48.780;9.212;2024-03-23T04:02:14;15.00;53.00
19258;DHT22;9763;48.780;9.212;2024-03-23T04:05:36;15.00;53.00
19258;DHT22;9763;48.780;9.212;2024-03-23T04:08:59;15.00;53.20
19258;DHT22;9763;48.780;9.212;2024-03-23T04:12:23;15.00;53.20
19258;DHT22;9763;48.780;9.212;2024-03-23T04:15:45;14.90;53.20
19258;DHT22;9763;48.780;9.212;2024-03-23T04:19:07;15.10;54.00
19258;DHT22;9763;48.780;9.212;2024-03-23T04:22:31;14.80;53.20
19258;DHT22;9763;48.780;9.212;2024-03-23T04:25:53;15.00;53.60
19258;DHT22;9763;48.780;9.212;2024-03-23T04:29:15;14.80;53.60
19258;DHT22;9763;48.780;9.212;2024-03-23T04:32:38;14.90;53.80
19258;DHT22;9763;48.780;9.212;2024-03-23T04:36:00;14.80;53.80
19258;DHT22;9763;48.780;9.212;2024-03-23T04:39:25;14.80;53.80
19258;DHT22;9763;48.780;9.212;2024-03-23T04:42:47;14.80;54.00
19258;DHT22;9763;48.780;9.212;2024-03-23T04:46:10;14.80;54.40
19258;DHT22;9763;48.780;9.212;2024-03-23T04:49:33;14.80;54.70
19258;DHT22;9763;48.780;9.212;2024-03-23T04:52:59;14.80;54.90
19258;DHT22;9763;48.780;9.212;2024-03-23T04:56:23;14.70;55.30
19258;DHT22;9763;48.780;9.212;2024-03-23T04:59:45;14.70;56.00
19258;DHT22;9763;48.780;9.212;2024-03-23T05:03:08;14.70;56.20
19258;DHT22;9763;48.780;9.212;2024-03-23T05:06:30;14.70;56.50
19258;DHT22;9763;48.780;9.212;2024-03-23T05:09:52;14.60;57.50
19258;DHT22;9763;48.780;9.212;2024-03-23T05:13:16;14.50;57.40
19258;DHT22;9763;48.780;9.212;2024-03-23T05:16:39;14.40;57.50
19258;DHT22;9763;48.780;9.212;2024-03-23T05:20:02;14.30;57.40
19258;DHT22;9763;48.780;9.212;2024-03-23T05:23:25;14.30;58.10
19258;DHT22;9763;48.780;9.212;2024-03-23T05:26:48;14.20;57.80
19258;DHT22;9763;48.780;9.212;2024-03-23T05:30:12;14.10;58.50
19258;DHT22;9763;48.780;9.212;2024-03-23T05:33:35;14.10;58.70
19258;DHT22;9763;48.780;9.212;2024-03-23T05:36:59;14.00;58.90
19258;DHT22;9763;48.780;9.212;2024-03-23T05:40:21;13.90;59.00
19258;DHT22;9763;48.780;9.212;2024-03-23T05:43:44;13.90;58.70
19258;DHT22;9763;48.780;9.212;2024-03-23T05:47:08;13.80;59.20
19258;DHT22;9763;48.780;9.212;2024-03-23T05:50:30;13.70;59.30
19258;DHT22;9763;48.780;9.212;2024-03-23T05:53:52;13.70;59.50
19258;DHT22;9763;48.780;9.212;2024-03-23T05:57:14;13.60;60.00
19258;DHT22;9763;48.780;9.212;2024-03-23T06:00:36;13.60;60.20
19258;DHT22;9763;48.780;9.212;2024-03-23T06:03:59;13.50;60.00
19258;DHT22;9763;48.780;9.212;2024-03-23T06:37:55;13.50;60.70
19258;DHT22;9763;48.780;9.212;2024-03-23T06:41:17;13.00;60.60
19258;DHT22;9763;48.780;9.212;2024-03-23T06:44:39;12.90;59.90
19258;DHT22;9763;48.780;9.212;2024-03-23T06:48:01;12.90;60.00
19258;DHT22;9763;48.780;9.212;2024-03-23T06:51:24;12.90;59.80
19258;DHT22;9763;48.780;9.212;2024-03-23T06:54:47;12.80;59.80
19258;DHT22;9763;48.780;9.212;2024-03-23T06:58:10;12.80;59.80
19258;DHT22;9763;48.780;9.212;2024-03-23T07:01:31;12.80;59.60
19258;DHT22;9763;48.780;9.212;2024-03-23T07:04:55;12.80;60.00
19258;DHT22;9763;48.780;9.212;2024-03-23T07:08:18;12.70;59.80
19258;DHT22;9763;48.780;9.212;2024-03-23T07:11:44;12.70;59.80
19258;DHT22;9763;48.780;9.212;2024-03-23T07:15:07;12.70;59.90
19258;DHT22;9763;48.780;9.212;2024-03-23T07:18:30;12.70;60.10
19258;DHT22;9763;48.780;9.212;2024-03-23T07:21:52;12.70;60.00
19258;DHT22;9763;48.780;9.212;2024-03-23T07:25:14;12.70;59.80
19258;DHT22;9763;48.780;9.212;2024-03-23T07:28:39;12.70;60.00
19258;DHT22;9763;48.780;9.212;2024-03-23T07:32:05;12.70;60.20
19258;DHT22;9763;48.780;9.212;2024-03-23T07:35:27;12.80;60.10
19258;DHT22;9763;48.780;9.212;2024-03-23T07:38:49;12.80;60.50
19258;DHT22;9763;48.780;9.212;2024-03-23T07:42:12;12.90;60.90
19258;DHT22;9763;48.780;9.212;2024-03-23T07:45:35;13.10;59.90
19258;DHT22;9763;48.780;9.212;2024-03-23T07:48:59;13.10;59.70
19258;DHT22;9763;48.780;9.212;2024-03-23T07:52:21;13.10;59.50
19258;DHT22;9763;48.780;9.212;2024-03-23T07:55:53;13.10;59.20
19258;DHT22;9763;48.780;9.212;2024-03-23T07:59:16;13.00;59.70
19258;DHT22;9763;48.780;9.212;2024-03-23T08:02:41;12.90;59.30
19258;DHT22;9763;48.780;9.212;2024-03-23T08:09:31;12.80;59.90
19258;DHT22;9763;48.780;9.212;2024-03-23T08:12:53;12.50;60.20
19258;DHT22;9763;48.780;9.212;2024-03-23T08:16:15;12.40;60.40
19258;DHT22;9763;48.780;9.212;2024-03-23T08:19:39;12.30;61.40
19258;DHT22;9763;48.780;9.212;2024-03-23T08:23:00;12.20;60.60
19258;DHT22;9763;48.780;9.212;2024-03-23T08:43:20;12.20;60.50
19258;DHT22;9763;48.780;9.212;2024-03-23T08:46:42;12.50;61.10
19258;DHT22;9763;48.780;9.212;2024-03-23T08:50:05;12.40;60.00
19258;DHT22;9763;48.780;9.212;2024-03-23T08:53:29;12.30;60.00
19258;DHT22;9763;48.780;9.212;2024-03-23T08:56:52;12.20;60.10
19258;DHT22;9763;48.780;9.212;2024-03-23T09:00:15;12.20;60.60
19258;DHT22;9763;48.780;9.212;2024-03-23T09:03:38;12.20;60.60
19258;DHT22;9763;48.780;9.212;2024-03-23T09:07:01;12.20;60.40
19258;DHT22;9763;48.780;9.212;2024-03-23T09:10:25;12.20;59.80
19258;DHT22;9763;48.780;9.212;2024-03-23T09:13:48;12.10;59.40
19258;DHT22;9763;48.780;9.212;2024-03-23T09:17:10;12.00;59.10
19258;DHT22;9763;48.780;9.212;2024-03-23T09:20:33;12.00;59.10
19258;DHT22;9763;48.780;9.212;2024-03-23T09:23:56;11.90;59.20
19258;DHT22;9763;48.780;9.212;2024-03-23T09:27:20;11.90;59.30
19258;DHT22;9763;48.780;9.212;2024-03-23T09:30:42;11.80;59.30
19258;DHT22;9763;48.780;9.212;2024-03-23T09:34:06;12.00;59.70
19258;DHT22;9763;48.780;9.212;2024-03-23T09:37:28;11.90;59.70
19258;DHT22;9763;48.780;9.212;2024-03-23T09:40:53;12.00;60.20
19258;DHT22;9763;48.780;9.212;2024-03-23T09:44:16;12.20;62.80
19258;DHT22;9763;48.780;9.212;2024-03-23T09:47:38;12.60;63.60
19258;DHT22;9763;48.780;9.212;2024-03-23T09:51:02;13.20;62.90
19258;DHT22;9763;48.780;9.212;2024-03-23T09:54:24;13.40;60.30
19258;DHT22;9763;48.780;9.212;2024-03-23T09:57:47;13.60;58.40
19258;DHT22;9763;48.780;9.212;2024-03-23T10:01:11;13.70;56.60
19258;DHT22;9763;48.780;9.212;2024-03-23T10:04:37;13.70;56.50
19258;DHT22;9763;48.780;9.212;2024-03-23T11:02:49;13.70;55.50
19258;DHT22;9763;48.780;9.212;2024-03-23T11:06:35;13.60;51.60
19258;DHT22;9763;48.780;9.212;2024-03-23T11:10:01;13.20;53.40
19258;DHT22;9763;48.780;9.212;2024-03-23T11:13:24;12.80;52.70
19258;DHT22;9763;48.780;9.212;2024-03-23T11:17:08;12.60;53.50
19258;DHT22;9763;48.780;9.212;2024-03-23T11:20:32;12.10;54.10
19258;DHT22;9763;48.780;9.212;2024-03-23T11:23:54;11.90;54.70
19258;DHT22;9763;48.780;9.212;2024-03-23T11:27:18;11.80;55.40
19258;DHT22;9763;48.780;9.212;2024-03-23T11:30:39;11.80;56.30
19258;DHT22;9763;48.780;9.212;2024-03-23T11:34:04;11.80;56.50
19258;DHT22;9763;48.780;9.212;2024-03-23T11:37:28;11.90;58.00
19258;DHT22;9763;48.780;9.212;2024-03-23T11:40:50;12.00;57.70
19258;DHT22;9763;48.780;9.212;2024-03-23T11:44:18;12.20;58.40
19258;DHT22;9763;48.780;9.212;2024-03-23T11:47:41;12.40;58.70
19258;DHT22;9763;48.780;9.212;2024-03-23T11:51:04;12.70;59.20
19258;DHT22;9763;48.780;9.212;2024-03-23T11:54:27;13.00;59.40
19258;DHT22;9763;48.780;9.212;2024-03-23T11:57:49;13.30;59.00
19258;DHT22;9763;48.780;9.212;2024-03-23T12:01:13;13.60;58.30
19258;DHT22;9763;48.780;9.212;2024-03-23T12:04:36;13.80;57.70
19258;DHT22;9763;48.780;9.212;2024-03-23T12:08:18;14.00;55.70
19258;DHT22;9763;48.780;9.212;2024-03-23T12:11:44;14.00;55.40
19258;DHT22;9763;48.780;9.212;2024-03-23T12:15:07;14.00;54.70
19258;DHT22;9763;48.780;9.212;2024-03-23T12:18:32;13.90;54.30
19258;DHT22;9763;48.780;9.212;2024-03-23T12:21:53;13.90;54.20
19258;DHT22;9763;48.780;9.212;2024-03-23T12:25:16;13.80;54.20
19258;DHT22;9763;48.780;9.212;2024-03-23T12:28:39;13.70;53.80
19258;DHT22;9763;48.780;9.212;2024-03-23T12:32:02;13.60;53.10
19258;DHT22;9763;48.780;9.212;2024-03-23T12:35:26;13.60;53.40
19258;DHT22;9763;48.780;9.212;2024-03-23T12:38:49;13.60;53.30
19258;DHT22;9763;48.780;9.212;2024-03-23T12:42:11;13.80;54.20
19258;DHT22;9763;48.780;9.212;2024-03-23T12:45:33;14.00;55.50
19258;DHT22;9763;48.780;9.212;2024-03-23T12:48:56;14.30;55.30
19258;DHT22;9763;48.780;9.212;2024-03-23T12:52:20;14.50;52.80
19258;DHT22;9763;48.780;9.212;2024-03-23T12:55:45;14.50;51.90
19258;DHT22;9763;48.780;9.212;2024-03-23T12:59:07;14.40;51.40
19258;DHT22;9763;48.780;9.212;2024-03-23T13:02:31;14.30;51.40
19258;DHT22;9763;48.780;9.212;2024-03-23T13:05:53;14.10;50.60
19258;DHT22;9763;48.780;9.212;2024-03-23T13:09:17;14.00;51.70
19258;DHT22;9763;48.780;9.212;2024-03-23T13:12:39;14.00;53.00
19258;DHT22;9763;48.780;9.212;2024-03-23T13:16:04;14.10;53.30
19258;DHT22;9763;48.780;9.212;2024-03-23T13:19:26;14.20;53.40
19258;DHT22;9763;48.780;9.212;2024-03-23T13:22:51;14.30;52.90
19258;DHT22;9763;48.780;9.212;2024-03-23T13:26:14;14.50;53.00
19258;DHT22;9763;48.780;9.212;2024-03-23T13:29:37;14.60;52.90
19258;DHT22;9763;48.780;9.212;2024-03-23T13:33:00;14.60;52.30
19258;DHT22;9763;48.780;9.212;2024-03-23T13:36:22;14.70;51.70
19258;DHT22;9763;48.780;9.212;2024-03-23T13:39:45;14.70;51.20
19258;DHT22;9763;48.780;9.212;2024-03-23T13:43:09;14.80;50.70
19258;DHT22;9763;48.780;9.212;2024-03-23T13:46:30;14.70;49.90
19258;DHT22;9763;48.780;9.212;2024-03-23T13:49:53;14.70;50.60
19258;DHT22;9763;48.780;9.212;2024-03-23T13:53:15;14.70;50.50
19258;DHT22;9763;48.780;9.212;2024-03-23T13:56:37;14.80;50.00
19258;DHT22;9763;48.780;9.212;2024-03-23T14:00:01;14.90;49.60
19258;DHT22;9763;48.780;9.212;2024-03-23T14:03:34;14.90;49.20
19258;DHT22;9763;48.780;9.212;2024-03-23T14:06:56;14.90;48.30
19258;DHT22;9763;48.780;9.212;2024-03-23T14:10:19;14.80;47.00
19258;DHT22;9763;48.780;9.212;2024-03-23T14:13:43;14.70;47.00
19258;DHT22;9763;48.780;9.212;2024-03-23T14:17:06;14.40;48.00
19258;DHT22;9763;48.780;9.212;2024-03-23T14:20:30;14.00;49.30
19258;DHT22;9763;48.780;9.212;2024-03-23T14:23:51;13.60;50.10
19258;DHT22;9763;48.780;9.212;2024-03-23T14:27:15;13.10;52.20
19258;DHT22;9763;48.780;9.212;2024-03-23T14:30:36;12.50;52.60
19258;DHT22;9763;48.780;9.212;2024-03-23T14:34:00;12.00;53.10
19258;DHT22;9763;48.780;9.212;2024-03-23T14:37:23;11.70;54.10
19258;DHT22;9763;48.780;9.212;2024-03-23T14:40:45;11.40;54.90
19258;DHT22;9763;48.780;9.212;2024-03-23T14:44:08;11.30;55.80
19258;DHT22;9763;48.780;9.212;2024-03-23T14:47:29;11.20;56.00
19258;DHT22;9763;48.780;9.212;2024-03-23T14:50:57;11.10;56.60
19258;DHT22;9763;48.780;9.212;2024-03-23T14:54:19;11.00;56.10
19258;DHT22;9763;48.780;9.212;2024-03-23T14:57:41;11.00;56.30
19258;DHT22;9763;48.780;9.212;2024-03-23T15:01:06;11.00;56.30
19258;DHT22;9763;48.780;9.212;2024-03-23T15:04:30;10.90;56.70
19258;DHT22;9763;48.780;9.212;2024-03-23T15:07:54;10.90;56.70
19258;DHT22;9763;48.780;9.212;2024-03-23T15:11:16;10.80;56.60
19258;DHT22;9763;48.780;9.212;2024-03-23T15:14:40;11.00;56.90
19258;DHT22;9763;48.780;9.212;2024-03-23T15:18:03;10.80;57.00
19258;DHT22;9763;48.780;9.212;2024-03-23T15:21:25;10.90;57.00
19258;DHT22;9763;48.780;9.212;2024-03-23T15:24:49;11.00;56.80
19258;DHT22;9763;48.780;9.212;2024-03-23T15:28:12;11.10;56.50
19258;DHT22;9763;48.780;9.212;2024-03-23T15:31:35;11.30;56.50
19258;DHT22;9763;48.780;9.212;2024-03-23T15:34:58;11.10;55.80
19258;DHT22;9763;48.780;9.212;2024-03-23T15:38:20;11.10;55.90
19258;DHT22;9763;48.780;9.212;2024-03-23T15:41:48;11.10;55.70
19258;DHT22;9763;48.780;9.212;2024-03-23T15:45:10;11.20;55.50
19258;DHT22;9763;48.780;9.212;2024-03-23T15:48:33;11.20;55.20
19258;DHT22;9763;48.780;9.212;2024-03-23T15:51:55;11.20;54.90
19258;DHT22;9763;48.780;9.212;2024-03-23T15:55:18;11.30;54.80
19258;DHT22;9763;48.780;9.212;2024-03-23T15:58:42;11.30;54.80
19258;DHT22;9763;48.780;9.212;2024-03-23T16:02:04;11.30;54.80
19258;DHT22;9763;48.780;9.212;2024-03-23T16:05:26;11.30;54.70
19258;DHT22;9763;48.780;9.212;2024-03-23T16:08:49;11.40;54.80
19258;DHT22;9763;48.780;9.212;2024-03-23T16:12:11;11.60;54.90
19258;DHT22;9763;48.780;9.212;2024-03-23T16:15:36;11.50;54.70
19258;DHT22;9763;48.780;9.212;2024-03-23T16:18:58;11.50;54.60
19258;DHT22;9763;48.780;9.212;2024-03-23T16:22:21;11.50;54.40
19258;DHT22;9763;48.780;9.212;2024-03-23T16:25:46;11.50;53.90
19258;DHT22;9763;48.780;9.212;2024-03-23T16:29:16;11.50;53.60
19258;DHT22;9763;48.780;9.212;2024-03-23T16:32:41;11.40;53.30
19258;DHT22;9763;48.780;9.212;2024-03-23T16:36:04;11.30;53.00
19258;DHT22;9763;48.780;9.212;2024-03-23T16:39:27;11.20;53.00
19258;DHT22;9763;48.780;9.212;2024-03-23T16:42:50;11.10;53.00
19258;DHT22;9763;48.780;9.212;2024-03-23T16:46:14;11.00;53.10
19258;DHT22;9763;48.780;9.212;2024-03-23T16:49:38;10.90;53.30
19258;DHT22;9763;48.780;9.212;2024-03-23T16:53:02;10.80;53.50
19258;DHT22;9763;48.780;9.212;2024-03-23T16:56:23;10.80;54.50
19258;DHT22;9763;48.780;9.212;2024-03-23T16:59:46;10.70;54.60
19258;DHT22;9763;48.780;9.212;2024-03-23T17:03:09;10.60;54.80
19258;DHT22;9763;48.780;9.212;2024-03-23T17:06:33;10.50;55.40
19258;DHT22;9763;48.780;9.212;2024-03-23T17:09:55;10.40;56.10
19258;DHT22;9763;48.780;9.212;2024-03-23T17:13:18;10.30;56.80
19258;DHT22;9763;48.780;9.212;2024-03-23T17:16:40;10.30;57.70
19258;DHT22;9763;48.780;9.212;2024-03-23T17:20:03;10.20;58.40
19258;DHT22;9763;48.780;9.212;2024-03-23T17:23:30;10.20;59.00
19258;DHT22;9763;48.780;9.212;2024-03-23T17:26:52;10.10;59.50
19258;DHT22;9763;48.780;9.212;2024-03-23T17:30:15;10.10;59.90
19258;DHT22;9763;48.780;9.212;2024-03-23T17:33:38;10.00;60.30
19258;DHT22;9763;48.780;9.212;2024-03-23T17:37:01;10.00;60.90
19258;DHT22;9763;48.780;9.212;2024-03-23T17:40:24;9.90;62.30
19258;DHT22;9763;48.780;9.212;2024-03-23T17:43:47;10.10;61.90
19258;DHT22;9763;48.780;9.212;2024-03-23T17:47:08;9.90;62.80
19258;DHT22;9763;48.780;9.212;2024-03-23T17:50:31;9.80;63.10
19258;DHT22;9763;48.780;9.212;2024-03-23T17:53:54;9.60;63.20
19258;DHT22;9763;48.780;9.212;2024-03-23T17:57:17;9.40;63.70
19258;DHT22;9763;48.780;9.212;2024-03-23T18:00:40;9.10;64.10
19258;DHT22;9763;48.780;9.212;2024-03-23T18:04:01;8.90;65.60
19258;DHT22;9763;48.780;9.212;2024-03-23T18:07:24;8.70;64.90
19258;DHT22;9763;48.780;9.212;2024-03-23T18:10:46;8.50;65.20
19258;DHT22;9763;48.780;9.212;2024-03-23T18:14:10;8.40;66.00
19258;DHT22;9763;48.780;9.212;2024-03-23T18:17:32;8.30;66.60
19258;DHT22;9763;48.780;9.212;2024-03-23T18:20:54;8.30;67.00
19258;DHT22;9763;48.780;9.212;2024-03-23T18:24:16;8.20;67.30
19258;DHT22;9763;48.780;9.212;2024-03-23T18:27:39;8.20;67.50
19258;DHT22;9763;48.780;9.212;2024-03-23T18:31:03;8.20;67.60
19258;DHT22;9763;48.780;9.212;2024-03-23T18:34:27;8.20;67.80
19258;DHT22;9763;48.780;9.212;2024-03-23T18:37:49;8.20;67.80
19258;DHT22;9763;48.780;9.212;2024-03-23T18:41:14;8.20;67.90
19258;DHT22;9763;48.780;9.212;2024-03-23T18:44:39;8.20;68.00
19258;DHT22;9763;48.780;9.212;2024-03-23T18:48:02;8.20;68.20
19258;DHT22;9763;48.780;9.212;2024-03-23T18:51:25;8.20;68.50
19258;DHT22;9763;48.780;9.212;2024-03-23T18:54:49;8.20;68.80
19258;DHT22;9763;48.780;9.212;2024-03-23T18:58:12;8.20;69.70
19258;DHT22;9763;48.780;9.212;2024-03-23T19:01:34;8.20;68.80
19258;DHT22;9763;48.780;9.212;2024-03-23T19:04:58;8.30;68.90
19258;DHT22;9763;48.780;9.212;2024-03-23T19:08:20;8.30;68.90
19258;DHT22;9763;48.780;9.212;2024-03-23T19:11:43;8.30;69.10
19258;DHT22;9763;48.780;9.212;2024-03-23T19:15:08;8.30;69.20
19258;DHT22;9763;48.780;9.212;2024-03-23T19:18:31;8.30;69.10
19258;DHT22;9763;48.780;9.212;2024-03-23T19:21:55;8.30;69.20
19258;DHT22;9763;48.780;9.212;2024-03-23T19:25:18;8.30;69.50
19258;DHT22;9763;48.780;9.212;2024-03-23T19:28:41;8.40;69.80
19258;DHT22;9763;48.780;9.212;2024-03-23T19:32:03;8.40;69.80
19258;DHT22;9763;48.780;9.212;2024-03-23T19:35:25;8.40;69.90
19258;DHT22;9763;48.780;9.212;2024-03-23T19:38:49;8.40;69.80
19258;DHT22;9763;48.780;9.212;2024-03-23T19:42:12;8.40;69.70
19258;DHT22;9763;48.780;9.212;2024-03-23T19:45:36;8.40;69.70
19258;DHT22;9763;48.780;9.212;2024-03-23T19:48:58;8.40;69.50
19258;DHT22;9763;48.780;9.212;2024-03-23T19:52:20;8.40;69.60
19258;DHT22;9763;48.780;9.212;2024-03-23T19:55:44;8.30;69.50
19258;DHT22;9763;48.780;9.212;2024-03-23T19:59:06;8.30;69.50
19258;DHT22;9763;48.780;9.212;2024-03-23T20:02:30;8.30;69.60
19258;DHT22;9763;48.780;9.212;2024-03-23T20:05:59;8.20;69.50
19258;DHT22;9763;48.780;9.212;2024-03-23T20:09:20;8.20;69.70
19258;DHT22;9763;48.780;9.212;2024-03-23T20:12:44;8.10;69.80
19258;DHT22;9763;48.780;9.212;2024-03-23T20:16:07;8.10;70.00
19258;DHT22;9763;48.780;9.212;2024-03-23T20:19:31;8.10;70.00
19258;DHT22;9763;48.780;9.212;2024-03-23T20:22:54;8.10;70.00
19258;DHT22;9763;48.780;9.212;2024-03-23T20:26:17;8.10;70.20
19258;DHT22;9763;48.780;9.212;2024-03-23T20:29:40;8.00;70.10
19258;DHT22;9763;48.780;9.212;2024-03-23T20:33:03;8.00;70.90
19258;DHT22;9763;48.780;9.212;2024-03-23T20:36:26;7.90;70.20
19258;DHT22;9763;48.780;9.212;2024-03-23T20:39:49;7.90;70.00
19258;DHT22;9763;48.780;9.212;2024-03-23T20:43:11;7.90;70.40
19258;DHT22;9763;48.780;9.212;2024-03-23T20:46:35;7.80;70.50
19258;DHT22;9763;48.780;9.212;2024-03-23T20:49:58;7.80;70.30
19258;DHT22;9763;48.780;9.212;2024-03-23T20:53:21;7.80;70.70
19258;DHT22;9763;48.780;9.212;2024-03-23T20:56:44;7.70;70.70
19258;DHT22;9763;48.780;9.212;2024-03-23T21:00:08;7.70;70.60
19258;DHT22;9763;48.780;9.212;2024-03-23T21:03:33;7.70;70.60
19258;DHT22;9763;48.780;9.212;2024-03-23T21:06:55;7.70;70.70
19258;DHT22;9763;48.780;9.212;2024-03-23T21:10:18;7.60;70.60
19258;DHT22;9763;48.780;9.212;2024-03-23T21:13:41;7.60;70.60
19258;DHT22;9763;48.780;9.212;2024-03-23T21:17:04;7.60;70.70
19258;DHT22;9763;48.780;9.212;2024-03-23T21:20:28;7.60;70.70
19258;DHT22;9763;48.780;9.212;2024-03-23T21:23:51;7.50;70.40
19258;DHT22;9763;48.780;9.212;2024-03-23T21:27:13;7.60;70.60
19258;DHT22;9763;48.780;9.212;2024-03-23T21:30:35;7.50;70.90
19258;DHT22;9763;48.780;9.212;2024-03-23T21:33:58;7.60;71.40
19258;DHT22;9763;48.780;9.212;2024-03-23T21:37:24;7.60;71.60
19258;DHT22;9763;48.780;9.212;2024-03-23T21:40:52;7.60;71.70
19258;DHT22;9763;48.780;9.212;2024-03-23T21:44:16;7.70;71.90
19258;DHT22;9763;48.780;9.212;2024-03-23T21:47:37;7.70;71.90
19258;DHT22;9763;48.780;9.212;2024-03-23T21:51:00;7.80;71.70
19258;DHT22;9763;48.780;9.212;2024-03-23T21:54:24;7.80;72.10
19258;DHT22;9763;48.780;9.212;2024-03-23T21:57:47;7.80;72.30
19258;DHT22;9763;48.780;9.212;2024-03-23T22:01:10;7.80;72.40
19258;DHT22;9763;48.780;9.212;2024-03-23T22:04:38;7.90;71.80
19258;DHT22;9763;48.780;9.212;2024-03-23T22:08:00;7.90;72.50
19258;DHT22;9763;48.780;9.212;2024-03-23T22:11:23;7.90;72.40
19258;DHT22;9763;48.780;9.212;2024-03-23T22:14:46;8.00;72.50
19258;DHT22;9763;48.780;9.212;2024-03-23T22:18:07;8.00;72.40
19258;DHT22;9763;48.780;9.212;2024-03-23T22:21:30;8.00;72.00
19258;DHT22;9763;48.780;9.212;2024-03-23T22:24:52;8.00;72.00
19258;DHT22;9763;48.780;9.212;2024-03-23T22:28:16;8.00;72.00
19258;DHT22;9763;48.780;9.212;2024-03-23T22:31:40;8.00;71.90
19258;DHT22;9763;48.780;9.212;2024-03-23T22:35:03;8.00;71.80
19258;DHT22;9763;48.780;9.212;2024-03-23T22:38:27;8.00;71.60
19258;DHT22;9763;48.780;9.212;2024-03-23T22:41:48;8.00;71.40
19258;DHT22;9763;48.780;9.212;2024-03-23T22:45:12;8.00;71.10
19258;DHT22;9763;48.780;9.212;2024-03-23T22:48:35;8.00;70.90
19258;DHT22;9763;48.780;9.212;2024-03-23T22:51:58;8.00;70.60
19258;DHT22;9763;48.780;9.212;2024-03-23T22:55:21;8.00;70.30
19258;DHT22;9763;48.780;9.212;2024-03-23T22:58:44;8.00;70.10
19258;DHT22;9763;48.780;9.212;2024-03-23T23:02:08;7.90;69.90
19258;DHT22;9763;48.780;9.212;2024-03-23T23:05:29;7.90;70.00
19258;DHT22;9763;48.780;9.212;2024-03-23T23:08:52;7.90;70.70
19258;DHT22;9763;48.780;9.212;2024-03-23T23:12:13;8.00;69.90
19258;DHT22;9763;48.780;9.212;2024-03-23T23:15:36;8.00;69.80
19258;DHT22;9763;48.780;9.212;2024-03-23T23:19:02;8.00;69.80
19258;DHT22;9763;48.780;9.212;2024-03-23T23:22:26;8.00;69.80
19258;DHT22;9763;48.780;9.212;2024-03-23T23:25:48;8.00;69.80
19258;DHT22;9763;48.780;9.212;2024-03-23T23:29:10;8.00;69.50
19258;DHT22;9763;48.780;9.212;2024-03-23T23:32:32;8.10;69.60
19258;DHT22;9763;48.780;9.212;2024-03-23T23:35:57;8.10;69.50
19258;DHT22;9763;48.780;9.212;2024-03-23T23:39:18;8.10;69.40
19258;DHT22;9763;48.780;9.212;2024-03-23T23:42:41;8.10;69.20
19258;DHT22;9763;48.780;9.212;2024-03-23T23:46:03;8.10;69.20
19258;DHT22;9763;48.780;9.212;2024-03-23T23:49:26;8.20;69.20
19258;DHT22;9763;48.780;9.212;2024-03-23T23:52:50;8.20;69.00
19258;DHT22;9763;48.780;9.212;2024-03-23T23:56:12;8.20;68.80
19258;DHT22;9763;48.780;9.212;2024-03-23T23:59:35;8.20;68.70
